Brownsboro, Texas
Current Conditions -  °F | °C
As of 1:53 PM on Friday 19 Dec 2014 (Local Time) from KTYR Reporting Station
Overcast Overcast  
Wind Chill: 51°   Ceiling: 600
Heat Index: 51°   Visibility: 10mi
Dew Point: 47°   Wind: 7mph
Humidity: 86%   Direction: 30°NNE
Pressure: 30.1"   Gusts: NA
Location:  32.3°N, 95.61°W
Report Text: KTYR 191953Z 03006KT 10SM OVC006 11/08 A3010 RMK AO2 SLP192 T01060083
Loading
Personal Weather Stations






























Interactive Weather Map New forecast layout! Learn more

10-Day Weather Forecast

Advertisements
Track Severe Weather on mobile